首页
METAR-TAF:

METAR-TAF

机场 :

Skagway, 阿拉斯加州, 美国

纬度: 59-28N, 经度: 135-18W, 海拔: 16米

当前天气观测

该预报发布于46分钟前的10:53 UTC
风速20节,风向南转西南,有时为30节阵风
温度 14°C
湿度 72%
气压 1004 hPa
能見度: 16.1公里
阴天层高于9000英尺
小雨

METAR: PAGY 191053Z AUTO 20020G30KT 10SM -RA OVC090 14/09 A2965 RMK PK WND 21030/1012 SLP041 P0000 T01390089 TSNO $ VIA AUTODIAL

时间: 03:39 (11:39 UTC)

预报

该预报发布于6小时和1分钟前的05:38 UTC
预报有效从19日的 06点(UTC)到 20日的 06点(UTC)
风速30节,风向南转西南,有时为40节阵风
能見度: 10公里
少量云层高于5000英尺
阴天层高于7000英尺
小阵雨
从 19日的 1200点(UTC)
风速20节,风向南转西南,有时为30节阵风
能見度: 10公里
阴天层高于5000英尺
小阵雨
从 19日的 1700点(UTC)
风速15节,风向南转西南,有时为25节阵风
能見度: 10公里
阴天层高于5000英尺
小阵雨

TAF: PAGY 190538Z 1906/2006 21030G40KT P6SM -SHRA FEW050 OVC070 FM191200 21020G30KT P6SM -SHRA OVC050 FM191700 21015G25KT P6SM -SHRA OVC050 AMD LTD TO CLD VIS AND WIND

超过4000个机场的气象观测和天气预报(METAR&TAF报告)。

可查询的气象台以黄色和红色小点在地图上表示。

将鼠标移到小点上方,可查看气象台名称。

然后点击查看天气观测和预报。

如需切换地图:点击带黑十字的绿色按钮放大地图;点击带横线的绿色按钮缩小地图;或者点击绿色箭头查看邻近地区的地图。


METAR-TAF: